< < Back
Terminal Aerodrome Forecast


Current Version              Previous Versions:   1  2  3  4  5  6  7  8  9  

Terminal Aerodrome Forecast

389
FTUS44 KMOB 271700
TAFMOB
TAF
KMOB 271731Z 2718/2818 11007KT P6SM VCTS SCT050CB BKN250
     FM280200 VRB03KT P6SM SCT250=

Latest METAR

594
SAUS80 KWBC 272300
MTRMOB
METAR KMOB 272256Z 23005KT 8SM SCT040CB SCT100 SCT250 26/23 A2999 RMK
AO2 RAB19E32 SLP152 CB E MOV W VCSH SW AND W P0000
T02610233


USA.gov is the U.S. government's official web portal to all federal, state and local government web resources and services.